Hamel, Illinois
Current Conditions -  °F | °C
As of 2:50 PM on Friday 24 Oct 2014 (Local Time) from KALN Reporting Station
Scattered Clouds Scattered Clouds  
Wind Chill: 70°   Ceiling: Unl
Heat Index: 70°   Visibility: 10mi
Dew Point: 52°   Wind: 6mph
Humidity: 53%   Direction: 250°WSW
Pressure: 30.05"   Gusts: NA
Location:  38.89°N, 89.85°W
Report Text: KALN 241950Z 25005KT 10SM SCT150 21/11 A3005
Loading
Personal Weather Stations






























Interactive Weather Map
Tropical Storm Tracking
New forecast layout! Learn more

10-Day Weather Forecast

Advertisements
Track Severe Weather on mobile